Casagiove, Italy

1:11 AM CEST on September 02, 2015 (GMT +0200)
Meteo TelePrima TV | | Change Station
CLOSE
Current Station
Personal Weather Station
Location: Caserta Nord, (Ce)
Elevation: 150 ft
Nearby Weather Stations

Elev 150 ft 41.08 °N, 14.30 °E | Updated 2 seconds ago

Clear
Clear
74.5 °F
Feels Like 75 °F
N
0.0
Wind Variable Wind from ENE
Gusts 0.0 mph

Today
High -- | Low -- °F
--% Chance of Precip.
Yesterday
High -- | Low -- °F
Precip. -- in
6:29 AM 7:34 PM
Waning Gibbous, 85% visible
Pressure 29.92 in
Visibility 5.0 miles
Clouds
Heat Index 75 °F
Dew Point 68 °F
Humidity 79%
Rainfall 0.00 in
Snow Depth Not available.
UV 0.0 out of 12
Pollen Not available.
Air Quality Not available.
Flu Activity Not available.
METAR LIRM 012255Z 33002KT 8000 NSC 20/19 Q1013 RMK SKC VIS MIN 8000 WIND THR06 32002KT BLU
Pressure 29.92 in
Visibility 5.0 miles
Clouds
Heat Index 75 °F
Dew Point 68 °F
Humidity 79%
Rainfall 0.00 in
Snow Depth Not available.
UV 0.0 out of 12
Pollen Not available.
Air Quality Not available.
Flu Activity Not available.
METAR LIRM 012255Z 33002KT 8000 NSC 20/19 Q1013 RMK SKC VIS MIN 8000 WIND THR06 32002KT BLU

10-Day Weather Forecast

×

Almanac

Astronomy

Sep. 02, 2015 Rise Set
Actual Time
Civil Twilight
Nautical Twilight
Astronomical Twilight
Moon
Length of Visible Light
Length of Day
Tomorrow will be .
, % of the Moon is Illuminated

Today's Extremes

Country Highs Country Lows

Community

WunderPhotos

Upload Photos

1,851,638 photos uploaded!

WunderBlogs® & News

Nearby

Air Quality

  Air Quality AQ Index Pollutant
Not available.

Snow Depth

Station Depth Elevation

Earthquake Activity

City Distance Mag. Time & Date
Minimum magnitude displayed is 2.5.

Coastal Water Temperatures

Place Temperature

Stations

Nearby Weather Stations

Station Location Temp. Windchill Dew Point Humidity Wind Precip. Elev Updated Type